sensor_id;sensor_type;location;lat;lon;timestamp;temperature;humidity
26583;DHT22;14230;45.382;10.998;2022-07-29T00:01:08;22.90;99.90
26583;DHT22;14230;45.382;10.998;2022-07-29T00:03:45;22.90;99.90
26583;DHT22;14230;45.382;10.998;2022-07-29T00:06:14;22.90;99.90
26583;DHT22;14230;45.382;10.998;2022-07-29T00:08:41;23.00;99.90
26583;DHT22;14230;45.382;10.998;2022-07-29T00:11:08;23.00;99.90
26583;DHT22;14230;45.382;10.998;2022-07-29T00:13:36;23.10;99.90
26583;DHT22;14230;45.382;10.998;2022-07-29T00:16:03;23.10;99.90
26583;DHT22;14230;45.382;10.998;2022-07-29T00:18:31;23.20;99.90
26583;DHT22;14230;45.382;10.998;2022-07-29T00:20:59;23.30;99.90
26583;DHT22;14230;45.382;10.998;2022-07-29T00:23:26;23.30;99.90
26583;DHT22;14230;45.382;10.998;2022-07-29T00:25:53;23.40;99.90
26583;DHT22;14230;45.382;10.998;2022-07-29T00:28:21;23.40;99.90
26583;DHT22;14230;45.382;10.998;2022-07-29T00:30:48;23.50;99.90
26583;DHT22;14230;45.382;10.998;2022-07-29T00:33:15;23.60;99.90
26583;DHT22;14230;45.382;10.998;2022-07-29T00:35:43;23.60;99.90
26583;DHT22;14230;45.382;10.998;2022-07-29T00:38:14;23.70;99.90
26583;DHT22;14230;45.382;10.998;2022-07-29T00:40:42;23.70;99.90
26583;DHT22;14230;45.382;10.998;2022-07-29T00:43:10;23.80;99.90
26583;DHT22;14230;45.382;10.998;2022-07-29T00:45:38;23.90;99.90
26583;DHT22;14230;45.382;10.998;2022-07-29T00:48:05;23.90;99.90
26583;DHT22;14230;45.382;10.998;2022-07-29T00:50:33;23.90;99.90
26583;DHT22;14230;45.382;10.998;2022-07-29T00:53:02;23.90;99.90
26583;DHT22;14230;45.382;10.998;2022-07-29T00:55:29;24.00;99.90
26583;DHT22;14230;45.382;10.998;2022-07-29T00:57:56;24.00;99.90
26583;DHT22;14230;45.382;10.998;2022-07-29T01:00:25;24.10;99.90
26583;DHT22;14230;45.382;10.998;2022-07-29T01:02:53;24.00;99.90
26583;DHT22;14230;45.382;10.998;2022-07-29T01:05:21;24.00;99.90
26583;DHT22;14230;45.382;10.998;2022-07-29T01:07:49;24.00;99.90
26583;DHT22;14230;45.382;10.998;2022-07-29T01:10:18;23.90;99.90
26583;DHT22;14230;45.382;10.998;2022-07-29T01:12:47;23.90;99.90
26583;DHT22;14230;45.382;10.998;2022-07-29T01:15:15;23.90;99.90
26583;DHT22;14230;45.382;10.998;2022-07-29T01:23:13;23.90;99.90
26583;DHT22;14230;45.382;10.998;2022-07-29T01:25:48;23.80;99.90
26583;DHT22;14230;45.382;10.998;2022-07-29T01:30:59;23.70;99.90
26583;DHT22;14230;45.382;10.998;2022-07-29T01:33:28;23.70;99.90
26583;DHT22;14230;45.382;10.998;2022-07-29T01:36:21;23.60;99.90
26583;DHT22;14230;45.382;10.998;2022-07-29T01:39:52;23.70;99.90
26583;DHT22;14230;45.382;10.998;2022-07-29T01:41:52;23.60;99.90
26583;DHT22;14230;45.382;10.998;2022-07-29T01:44:26;23.60;99.90
26583;DHT22;14230;45.382;10.998;2022-07-29T01:46:58;23.60;99.90
26583;DHT22;14230;45.382;10.998;2022-07-29T01:49:27;23.60;99.90
26583;DHT22;14230;45.382;10.998;2022-07-29T01:51:59;23.50;99.90
26583;DHT22;14230;45.382;10.998;2022-07-29T01:54:34;23.40;99.90
26583;DHT22;14230;45.382;10.998;2022-07-29T01:57:02;23.30;99.90
26583;DHT22;14230;45.382;10.998;2022-07-29T01:59:31;23.30;99.90
26583;DHT22;14230;45.382;10.998;2022-07-29T02:02:00;23.20;99.90
26583;DHT22;14230;45.382;10.998;2022-07-29T02:04:28;23.20;99.90
26583;DHT22;14230;45.382;10.998;2022-07-29T02:07:00;23.20;99.90
26583;DHT22;14230;45.382;10.998;2022-07-29T02:09:29;23.20;99.90
26583;DHT22;14230;45.382;10.998;2022-07-29T02:11:57;23.30;99.90
26583;DHT22;14230;45.382;10.998;2022-07-29T02:14:25;23.30;99.90
26583;DHT22;14230;45.382;10.998;2022-07-29T02:16:54;23.30;99.90
26583;DHT22;14230;45.382;10.998;2022-07-29T02:19:23;23.30;99.90
26583;DHT22;14230;45.382;10.998;2022-07-29T02:21:52;23.30;99.90
26583;DHT22;14230;45.382;10.998;2022-07-29T02:24:20;23.30;99.90
26583;DHT22;14230;45.382;10.998;2022-07-29T02:26:49;23.30;99.90
26583;DHT22;14230;45.382;10.998;2022-07-29T02:29:19;23.20;99.90
26583;DHT22;14230;45.382;10.998;2022-07-29T02:31:48;23.20;99.90
26583;DHT22;14230;45.382;10.998;2022-07-29T02:34:15;23.20;99.90
26583;DHT22;14230;45.382;10.998;2022-07-29T02:36:46;23.20;99.90
26583;DHT22;14230;45.382;10.998;2022-07-29T02:39:15;23.10;99.90
26583;DHT22;14230;45.382;10.998;2022-07-29T02:41:44;23.10;99.90
26583;DHT22;14230;45.382;10.998;2022-07-29T02:44:16;23.00;99.90
26583;DHT22;14230;45.382;10.998;2022-07-29T02:46:52;23.00;99.90
26583;DHT22;14230;45.382;10.998;2022-07-29T02:51:53;23.00;99.90
26583;DHT22;14230;45.382;10.998;2022-07-29T02:56:58;23.00;99.90
26583;DHT22;14230;45.382;10.998;2022-07-29T02:59:27;23.00;99.90
26583;DHT22;14230;45.382;10.998;2022-07-29T03:01:57;23.00;99.90
26583;DHT22;14230;45.382;10.998;2022-07-29T03:04:26;23.00;99.90
26583;DHT22;14230;45.382;10.998;2022-07-29T03:06:56;22.90;99.90
26583;DHT22;14230;45.382;10.998;2022-07-29T03:09:25;22.90;99.90
26583;DHT22;14230;45.382;10.998;2022-07-29T03:11:52;22.90;99.90
26583;DHT22;14230;45.382;10.998;2022-07-29T03:14:21;22.80;99.90
26583;DHT22;14230;45.382;10.998;2022-07-29T03:16:49;22.80;99.90
26583;DHT22;14230;45.382;10.998;2022-07-29T03:19:18;22.80;99.90
26583;DHT22;14230;45.382;10.998;2022-07-29T03:21:47;22.80;99.90
26583;DHT22;14230;45.382;10.998;2022-07-29T03:24:31;22.80;99.90
26583;DHT22;14230;45.382;10.998;2022-07-29T03:26:59;22.80;99.90
26583;DHT22;14230;45.382;10.998;2022-07-29T03:29:26;22.70;99.90
26583;DHT22;14230;45.382;10.998;2022-07-29T03:32:01;22.60;99.90
26583;DHT22;14230;45.382;10.998;2022-07-29T03:34:33;22.60;99.90
26583;DHT22;14230;45.382;10.998;2022-07-29T03:37:00;22.60;99.90
26583;DHT22;14230;45.382;10.998;2022-07-29T03:39:29;22.60;99.90
26583;DHT22;14230;45.382;10.998;2022-07-29T03:41:58;22.60;99.90
26583;DHT22;14230;45.382;10.998;2022-07-29T03:44:26;22.60;99.90
26583;DHT22;14230;45.382;10.998;2022-07-29T03:46:55;22.60;99.90
26583;DHT22;14230;45.382;10.998;2022-07-29T03:49:23;22.60;99.90
26583;DHT22;14230;45.382;10.998;2022-07-29T03:51:51;22.60;99.90
26583;DHT22;14230;45.382;10.998;2022-07-29T03:54:18;22.70;99.90
26583;DHT22;14230;45.382;10.998;2022-07-29T03:56:46;22.70;99.90
26583;DHT22;14230;45.382;10.998;2022-07-29T03:59:15;22.70;99.90
26583;DHT22;14230;45.382;10.998;2022-07-29T04:01:43;22.80;99.90
26583;DHT22;14230;45.382;10.998;2022-07-29T04:04:11;22.80;99.90
26583;DHT22;14230;45.382;10.998;2022-07-29T04:06:42;22.90;99.90
26583;DHT22;14230;45.382;10.998;2022-07-29T04:09:10;22.90;99.90
26583;DHT22;14230;45.382;10.998;2022-07-29T04:11:38;22.90;99.90
26583;DHT22;14230;45.382;10.998;2022-07-29T04:14:26;22.90;99.90
26583;DHT22;14230;45.382;10.998;2022-07-29T04:16:53;23.00;99.90
26583;DHT22;14230;45.382;10.998;2022-07-29T04:19:21;23.00;99.90
26583;DHT22;14230;45.382;10.998;2022-07-29T04:21:48;23.00;99.90
26583;DHT22;14230;45.382;10.998;2022-07-29T04:24:15;22.90;99.90
26583;DHT22;14230;45.382;10.998;2022-07-29T04:26:45;22.90;99.90
26583;DHT22;14230;45.382;10.998;2022-07-29T04:29:12;23.00;99.90
26583;DHT22;14230;45.382;10.998;2022-07-29T04:31:41;22.90;99.90
26583;DHT22;14230;45.382;10.998;2022-07-29T04:34:09;23.00;99.90
26583;DHT22;14230;45.382;10.998;2022-07-29T04:36:37;23.10;99.90
26583;DHT22;14230;45.382;10.998;2022-07-29T04:39:04;23.20;99.90
26583;DHT22;14230;45.382;10.998;2022-07-29T04:41:31;23.20;99.90
26583;DHT22;14230;45.382;10.998;2022-07-29T04:44:00;23.20;99.90
26583;DHT22;14230;45.382;10.998;2022-07-29T04:46:33;23.20;99.90
26583;DHT22;14230;45.382;10.998;2022-07-29T04:49:01;23.20;99.90
26583;DHT22;14230;45.382;10.998;2022-07-29T05:15:09;24.00;99.90
26583;DHT22;14230;45.382;10.998;2022-07-29T05:18:41;24.30;99.90
26583;DHT22;14230;45.382;10.998;2022-07-29T05:57:55;27.50;99.90
26583;DHT22;14230;45.382;10.998;2022-07-29T06:04:18;28.80;99.90
26583;DHT22;14230;45.382;10.998;2022-07-29T06:10:46;29.40;99.90
26583;DHT22;14230;45.382;10.998;2022-07-29T06:48:08;32.20;99.90
26583;DHT22;14230;45.382;10.998;2022-07-29T07:38:54;37.20;99.90
26583;DHT22;14230;45.382;10.998;2022-07-29T07:50:30;39.00;95.30
26583;DHT22;14230;45.382;10.998;2022-07-29T08:20:10;40.90;83.70
26583;DHT22;14230;45.382;10.998;2022-07-29T08:22:38;41.00;85.60
26583;DHT22;14230;45.382;10.998;2022-07-29T08:25:10;41.50;82.90
26583;DHT22;14230;45.382;10.998;2022-07-29T08:27:46;41.30;81.20
26583;DHT22;14230;45.382;10.998;2022-07-29T08:30:24;41.20;81.40
26583;DHT22;14230;45.382;10.998;2022-07-29T08:32:52;41.60;80.00
26583;DHT22;14230;45.382;10.998;2022-07-29T08:35:22;41.90;78.40
26583;DHT22;14230;45.382;10.998;2022-07-29T08:37:51;42.00;76.50
26583;DHT22;14230;45.382;10.998;2022-07-29T09:05:48;42.30;73.90
26583;DHT22;14230;45.382;10.998;2022-07-29T09:08:16;42.70;73.40
26583;DHT22;14230;45.382;10.998;2022-07-29T09:10:47;42.60;73.30
26583;DHT22;14230;45.382;10.998;2022-07-29T09:13:15;42.20;73.30
26583;DHT22;14230;45.382;10.998;2022-07-29T09:15:43;42.70;72.80
26583;DHT22;14230;45.382;10.998;2022-07-29T09:18:11;42.80;72.30
26583;DHT22;14230;45.382;10.998;2022-07-29T09:20:57;42.40;72.70
26583;DHT22;14230;45.382;10.998;2022-07-29T09:24:13;42.60;72.00
26583;DHT22;14230;45.382;10.998;2022-07-29T09:54:52;42.10;72.20
26583;DHT22;14230;45.382;10.998;2022-07-29T09:58:21;41.70;70.20
26583;DHT22;14230;45.382;10.998;2022-07-29T10:00:51;41.20;71.80
26583;DHT22;14230;45.382;10.998;2022-07-29T10:03:21;41.80;72.50
26583;DHT22;14230;45.382;10.998;2022-07-29T10:06:11;42.20;71.50
26583;DHT22;14230;45.382;10.998;2022-07-29T10:08:41;42.10;71.70
26583;DHT22;14230;45.382;10.998;2022-07-29T10:11:14;41.80;71.60
26583;DHT22;14230;45.382;10.998;2022-07-29T10:13:43;41.80;71.80
26583;DHT22;14230;45.382;10.998;2022-07-29T10:16:11;41.90;71.00
26583;DHT22;14230;45.382;10.998;2022-07-29T10:18:44;41.80;71.70
26583;DHT22;14230;45.382;10.998;2022-07-29T10:21:12;42.10;71.60
26583;DHT22;14230;45.382;10.998;2022-07-29T10:24:00;42.20;71.10
26583;DHT22;14230;45.382;10.998;2022-07-29T10:26:29;42.60;70.20
26583;DHT22;14230;45.382;10.998;2022-07-29T10:28:57;42.50;69.30
26583;DHT22;14230;45.382;10.998;2022-07-29T10:31:36;42.00;70.10
26583;DHT22;14230;45.382;10.998;2022-07-29T10:34:36;41.70;70.40
26583;DHT22;14230;45.382;10.998;2022-07-29T10:37:24;41.00;71.90
26583;DHT22;14230;45.382;10.998;2022-07-29T10:40:31;41.40;71.70
26583;DHT22;14230;45.382;10.998;2022-07-29T10:43:30;41.20;72.00
26583;DHT22;14230;45.382;10.998;2022-07-29T10:46:00;41.30;71.30
26583;DHT22;14230;45.382;10.998;2022-07-29T10:48:29;40.90;72.60
26583;DHT22;14230;45.382;10.998;2022-07-29T10:51:01;40.60;72.20
26583;DHT22;14230;45.382;10.998;2022-07-29T10:53:51;40.70;72.70
26583;DHT22;14230;45.382;10.998;2022-07-29T10:56:27;40.60;73.10
26583;DHT22;14230;45.382;10.998;2022-07-29T11:01:50;39.80;74.70
26583;DHT22;14230;45.382;10.998;2022-07-29T11:07:34;39.40;77.00
26583;DHT22;14230;45.382;10.998;2022-07-29T11:15:12;36.90;80.50
26583;DHT22;14230;45.382;10.998;2022-07-29T11:23:32;34.70;88.80
26583;DHT22;14230;45.382;10.998;2022-07-29T11:28:50;34.30;90.80
26583;DHT22;14230;45.382;10.998;2022-07-29T11:31:41;34.10;90.90
26583;DHT22;14230;45.382;10.998;2022-07-29T11:45:21;33.60;93.30
26583;DHT22;14230;45.382;10.998;2022-07-29T11:48:15;33.80;94.10
26583;DHT22;14230;45.382;10.998;2022-07-29T11:50:56;34.10;93.30
26583;DHT22;14230;45.382;10.998;2022-07-29T11:53:25;34.00;93.30
26583;DHT22;14230;45.382;10.998;2022-07-29T11:56:13;33.90;93.40
26583;DHT22;14230;45.382;10.998;2022-07-29T11:58:44;33.50;94.00
26583;DHT22;14230;45.382;10.998;2022-07-29T12:01:17;33.50;94.10
26583;DHT22;14230;45.382;10.998;2022-07-29T12:03:44;33.40;93.90
26583;DHT22;14230;45.382;10.998;2022-07-29T12:06:13;33.30;94.90
26583;DHT22;14230;45.382;10.998;2022-07-29T12:08:46;33.40;95.50
26583;DHT22;14230;45.382;10.998;2022-07-29T12:11:18;33.50;94.80
26583;DHT22;14230;45.382;10.998;2022-07-29T12:13:50;33.70;94.60
26583;DHT22;14230;45.382;10.998;2022-07-29T12:16:20;33.60;94.90
26583;DHT22;14230;45.382;10.998;2022-07-29T12:19:00;33.50;94.30
26583;DHT22;14230;45.382;10.998;2022-07-29T12:21:46;33.50;94.60
26583;DHT22;14230;45.382;10.998;2022-07-29T12:24:23;33.50;95.50
26583;DHT22;14230;45.382;10.998;2022-07-29T12:29:22;33.60;95.40
26583;DHT22;14230;45.382;10.998;2022-07-29T12:32:03;33.70;95.30
26583;DHT22;14230;45.382;10.998;2022-07-29T12:34:45;33.60;94.80
26583;DHT22;14230;45.382;10.998;2022-07-29T12:37:13;33.50;94.90
26583;DHT22;14230;45.382;10.998;2022-07-29T12:39:41;33.40;95.60
26583;DHT22;14230;45.382;10.998;2022-07-29T12:42:13;33.40;96.20
26583;DHT22;14230;45.382;10.998;2022-07-29T12:44:49;33.40;95.20
26583;DHT22;14230;45.382;10.998;2022-07-29T12:47:18;33.50;95.60
26583;DHT22;14230;45.382;10.998;2022-07-29T12:49:46;33.30;96.10
26583;DHT22;14230;45.382;10.998;2022-07-29T12:52:31;33.40;96.10
26583;DHT22;14230;45.382;10.998;2022-07-29T12:55:00;33.50;96.10
26583;DHT22;14230;45.382;10.998;2022-07-29T12:57:28;33.50;95.20
26583;DHT22;14230;45.382;10.998;2022-07-29T13:00:11;33.30;96.20
26583;DHT22;14230;45.382;10.998;2022-07-29T13:02:41;33.10;95.40
26583;DHT22;14230;45.382;10.998;2022-07-29T13:05:10;33.20;96.40
26583;DHT22;14230;45.382;10.998;2022-07-29T13:07:39;33.30;96.50
26583;DHT22;14230;45.382;10.998;2022-07-29T13:10:23;33.40;95.40
26583;DHT22;14230;45.382;10.998;2022-07-29T13:13:11;33.30;95.20
26583;DHT22;14230;45.382;10.998;2022-07-29T13:15:44;33.30;95.50
26583;DHT22;14230;45.382;10.998;2022-07-29T13:18:30;33.30;95.60
26583;DHT22;14230;45.382;10.998;2022-07-29T13:21:13;33.20;95.80
26583;DHT22;14230;45.382;10.998;2022-07-29T13:23:42;33.10;95.40
26583;DHT22;14230;45.382;10.998;2022-07-29T13:26:11;33.20;95.20
26583;DHT22;14230;45.382;10.998;2022-07-29T13:28:43;33.20;95.30
26583;DHT22;14230;45.382;10.998;2022-07-29T13:31:11;33.30;95.80
26583;DHT22;14230;45.382;10.998;2022-07-29T13:33:39;33.40;95.40
26583;DHT22;14230;45.382;10.998;2022-07-29T13:36:14;33.60;95.50
26583;DHT22;14230;45.382;10.998;2022-07-29T13:38:41;33.60;94.60
26583;DHT22;14230;45.382;10.998;2022-07-29T13:41:09;33.60;95.20
26583;DHT22;14230;45.382;10.998;2022-07-29T13:43:36;33.60;94.50
26583;DHT22;14230;45.382;10.998;2022-07-29T13:46:04;33.70;94.20
26583;DHT22;14230;45.382;10.998;2022-07-29T13:48:31;33.70;94.70
26583;DHT22;14230;45.382;10.998;2022-07-29T13:50:59;33.70;95.20
26583;DHT22;14230;45.382;10.998;2022-07-29T13:53:26;33.70;95.00
26583;DHT22;14230;45.382;10.998;2022-07-29T13:55:55;33.50;95.10
26583;DHT22;14230;45.382;10.998;2022-07-29T13:58:22;33.60;95.90
26583;DHT22;14230;45.382;10.998;2022-07-29T14:00:50;33.60;95.40
26583;DHT22;14230;45.382;10.998;2022-07-29T14:03:17;33.60;95.20
26583;DHT22;14230;45.382;10.998;2022-07-29T14:05:45;33.60;95.10
26583;DHT22;14230;45.382;10.998;2022-07-29T14:08:12;33.50;95.70
26583;DHT22;14230;45.382;10.998;2022-07-29T14:10:40;33.40;96.00
26583;DHT22;14230;45.382;10.998;2022-07-29T14:13:07;33.30;95.30
26583;DHT22;14230;45.382;10.998;2022-07-29T14:15:52;33.30;95.90
26583;DHT22;14230;45.382;10.998;2022-07-29T14:18:20;33.40;96.00
26583;DHT22;14230;45.382;10.998;2022-07-29T14:20:47;33.30;96.30
26583;DHT22;14230;45.382;10.998;2022-07-29T14:23:15;33.40;96.60
26583;DHT22;14230;45.382;10.998;2022-07-29T14:25:46;33.40;96.80
26583;DHT22;14230;45.382;10.998;2022-07-29T14:28:15;33.30;96.70
26583;DHT22;14230;45.382;10.998;2022-07-29T14:30:43;33.30;97.10
26583;DHT22;14230;45.382;10.998;2022-07-29T14:33:10;33.20;97.10
26583;DHT22;14230;45.382;10.998;2022-07-29T14:35:38;33.20;97.50
26583;DHT22;14230;45.382;10.998;2022-07-29T14:38:05;33.20;97.60
26583;DHT22;14230;45.382;10.998;2022-07-29T14:40:33;33.20;97.50
26583;DHT22;14230;45.382;10.998;2022-07-29T14:43:00;33.10;97.00
26583;DHT22;14230;45.382;10.998;2022-07-29T14:45:28;33.00;97.50
26583;DHT22;14230;45.382;10.998;2022-07-29T14:47:56;32.80;97.40
26583;DHT22;14230;45.382;10.998;2022-07-29T14:50:24;32.70;98.10
26583;DHT22;14230;45.382;10.998;2022-07-29T14:52:59;32.70;98.30
26583;DHT22;14230;45.382;10.998;2022-07-29T14:55:27;32.60;98.10
26583;DHT22;14230;45.382;10.998;2022-07-29T14:57:54;32.50;98.80
26583;DHT22;14230;45.382;10.998;2022-07-29T15:00:34;32.40;99.20
26583;DHT22;14230;45.382;10.998;2022-07-29T15:03:01;32.30;99.10
26583;DHT22;14230;45.382;10.998;2022-07-29T15:05:32;32.20;99.50
26583;DHT22;14230;45.382;10.998;2022-07-29T15:08:00;32.10;99.60
26583;DHT22;14230;45.382;10.998;2022-07-29T15:10:27;32.00;99.90
26583;DHT22;14230;45.382;10.998;2022-07-29T15:12:56;32.00;99.90
26583;DHT22;14230;45.382;10.998;2022-07-29T15:15:24;31.90;99.90
26583;DHT22;14230;45.382;10.998;2022-07-29T15:17:51;31.80;99.90
26583;DHT22;14230;45.382;10.998;2022-07-29T15:20:19;31.80;99.90
26583;DHT22;14230;45.382;10.998;2022-07-29T15:22:47;31.70;99.90
26583;DHT22;14230;45.382;10.998;2022-07-29T15:25:14;31.60;99.90
26583;DHT22;14230;45.382;10.998;2022-07-29T15:27:41;31.50;99.90
26583;DHT22;14230;45.382;10.998;2022-07-29T15:30:15;31.50;99.90
26583;DHT22;14230;45.382;10.998;2022-07-29T15:33:00;31.50;99.90
26583;DHT22;14230;45.382;10.998;2022-07-29T15:35:27;31.50;99.90
26583;DHT22;14230;45.382;10.998;2022-07-29T15:37:55;31.50;99.90
26583;DHT22;14230;45.382;10.998;2022-07-29T15:40:22;31.40;99.90
26583;DHT22;14230;45.382;10.998;2022-07-29T15:42:49;31.40;99.90
26583;DHT22;14230;45.382;10.998;2022-07-29T15:45:17;31.30;99.90
26583;DHT22;14230;45.382;10.998;2022-07-29T15:47:44;31.20;99.90
26583;DHT22;14230;45.382;10.998;2022-07-29T15:50:12;31.20;99.90
26583;DHT22;14230;45.382;10.998;2022-07-29T15:52:42;31.10;99.90
26583;DHT22;14230;45.382;10.998;2022-07-29T15:55:12;31.10;99.90
26583;DHT22;14230;45.382;10.998;2022-07-29T15:57:39;31.00;99.90
26583;DHT22;14230;45.382;10.998;2022-07-29T16:00:07;30.90;99.90
26583;DHT22;14230;45.382;10.998;2022-07-29T16:02:35;30.90;99.90
26583;DHT22;14230;45.382;10.998;2022-07-29T16:05:03;30.80;99.90
26583;DHT22;14230;45.382;10.998;2022-07-29T16:07:35;30.60;99.90
26583;DHT22;14230;45.382;10.998;2022-07-29T16:10:04;30.50;99.90
26583;DHT22;14230;45.382;10.998;2022-07-29T16:12:34;30.40;99.90
26583;DHT22;14230;45.382;10.998;2022-07-29T16:15:01;30.30;99.90
26583;DHT22;14230;45.382;10.998;2022-07-29T16:17:36;30.10;99.90
26583;DHT22;14230;45.382;10.998;2022-07-29T16:20:05;30.00;99.90
26583;DHT22;14230;45.382;10.998;2022-07-29T16:22:32;29.90;99.90
26583;DHT22;14230;45.382;10.998;2022-07-29T16:25:00;29.70;99.90
26583;DHT22;14230;45.382;10.998;2022-07-29T16:27:27;29.70;99.90
26583;DHT22;14230;45.382;10.998;2022-07-29T16:30:05;29.60;99.90
26583;DHT22;14230;45.382;10.998;2022-07-29T16:32:36;29.50;99.90
26583;DHT22;14230;45.382;10.998;2022-07-29T16:35:04;29.40;99.90
26583;DHT22;14230;45.382;10.998;2022-07-29T16:37:31;29.20;99.90
26583;DHT22;14230;45.382;10.998;2022-07-29T16:40:04;29.20;99.90
26583;DHT22;14230;45.382;10.998;2022-07-29T16:42:33;29.00;99.90
26583;DHT22;14230;45.382;10.998;2022-07-29T16:45:14;29.00;99.90
26583;DHT22;14230;45.382;10.998;2022-07-29T16:47:44;28.80;99.90
26583;DHT22;14230;45.382;10.998;2022-07-29T16:50:11;28.80;99.90
26583;DHT22;14230;45.382;10.998;2022-07-29T16:52:39;28.70;99.90
26583;DHT22;14230;45.382;10.998;2022-07-29T16:55:06;28.50;99.90
26583;DHT22;14230;45.382;10.998;2022-07-29T16:57:34;28.50;99.90
26583;DHT22;14230;45.382;10.998;2022-07-29T17:00:02;28.40;99.90
26583;DHT22;14230;45.382;10.998;2022-07-29T17:02:30;28.40;99.90
26583;DHT22;14230;45.382;10.998;2022-07-29T17:04:57;28.40;99.90
26583;DHT22;14230;45.382;10.998;2022-07-29T17:07:25;28.30;99.90
26583;DHT22;14230;45.382;10.998;2022-07-29T17:09:52;28.30;99.90
26583;DHT22;14230;45.382;10.998;2022-07-29T17:12:24;28.30;99.90
26583;DHT22;14230;45.382;10.998;2022-07-29T17:14:51;28.30;99.90
26583;DHT22;14230;45.382;10.998;2022-07-29T17:17:18;28.30;99.90
26583;DHT22;14230;45.382;10.998;2022-07-29T17:20:07;28.20;99.90
26583;DHT22;14230;45.382;10.998;2022-07-29T17:22:35;28.20;99.90
26583;DHT22;14230;45.382;10.998;2022-07-29T17:25:03;28.20;99.90
26583;DHT22;14230;45.382;10.998;2022-07-29T17:27:31;28.10;99.90
26583;DHT22;14230;45.382;10.998;2022-07-29T17:29:58;28.10;99.90
26583;DHT22;14230;45.382;10.998;2022-07-29T17:32:26;28.10;99.90
26583;DHT22;14230;45.382;10.998;2022-07-29T17:34:53;28.10;99.90
26583;DHT22;14230;45.382;10.998;2022-07-29T17:37:21;28.00;99.90
26583;DHT22;14230;45.382;10.998;2022-07-29T17:39:48;27.90;99.90
26583;DHT22;14230;45.382;10.998;2022-07-29T17:42:16;27.80;99.90
26583;DHT22;14230;45.382;10.998;2022-07-29T17:44:44;27.70;99.90
26583;DHT22;14230;45.382;10.998;2022-07-29T17:47:11;27.60;99.90
26583;DHT22;14230;45.382;10.998;2022-07-29T17:49:44;27.50;99.90
26583;DHT22;14230;45.382;10.998;2022-07-29T17:52:11;27.40;99.90
26583;DHT22;14230;45.382;10.998;2022-07-29T17:54:39;27.30;99.90
26583;DHT22;14230;45.382;10.998;2022-07-29T17:57:07;27.30;99.90
26583;DHT22;14230;45.382;10.998;2022-07-29T17:59:36;27.20;99.90
26583;DHT22;14230;45.382;10.998;2022-07-29T18:02:04;27.10;99.90
26583;DHT22;14230;45.382;10.998;2022-07-29T18:04:31;27.10;99.90
26583;DHT22;14230;45.382;10.998;2022-07-29T18:06:59;27.10;99.90
26583;DHT22;14230;45.382;10.998;2022-07-29T18:09:28;27.10;99.90
26583;DHT22;14230;45.382;10.998;2022-07-29T18:11:56;27.10;99.90
26583;DHT22;14230;45.382;10.998;2022-07-29T18:14:23;27.10;99.90
26583;DHT22;14230;45.382;10.998;2022-07-29T18:16:50;27.10;99.90
26583;DHT22;14230;45.382;10.998;2022-07-29T18:19:18;27.10;99.90
26583;DHT22;14230;45.382;10.998;2022-07-29T18:21:46;27.10;99.90
26583;DHT22;14230;45.382;10.998;2022-07-29T18:24:22;27.20;99.90
26583;DHT22;14230;45.382;10.998;2022-07-29T18:26:52;27.20;99.90
26583;DHT22;14230;45.382;10.998;2022-07-29T18:29:20;27.20;99.90
26583;DHT22;14230;45.382;10.998;2022-07-29T18:31:47;27.20;99.90
26583;DHT22;14230;45.382;10.998;2022-07-29T18:34:15;27.20;99.90
26583;DHT22;14230;45.382;10.998;2022-07-29T18:36:43;27.30;99.90
26583;DHT22;14230;45.382;10.998;2022-07-29T18:39:12;27.20;99.90
26583;DHT22;14230;45.382;10.998;2022-07-29T18:41:50;27.20;99.90
26583;DHT22;14230;45.382;10.998;2022-07-29T18:44:18;27.10;99.90
26583;DHT22;14230;45.382;10.998;2022-07-29T18:46:50;27.10;99.90
26583;DHT22;14230;45.382;10.998;2022-07-29T18:49:18;27.00;99.90
26583;DHT22;14230;45.382;10.998;2022-07-29T18:51:46;26.90;99.90
26583;DHT22;14230;45.382;10.998;2022-07-29T18:54:14;26.90;99.90
26583;DHT22;14230;45.382;10.998;2022-07-29T18:56:42;26.90;99.90
26583;DHT22;14230;45.382;10.998;2022-07-29T18:59:10;26.90;99.90
26583;DHT22;14230;45.382;10.998;2022-07-29T19:01:37;26.80;99.90
26583;DHT22;14230;45.382;10.998;2022-07-29T19:04:05;26.80;99.90
26583;DHT22;14230;45.382;10.998;2022-07-29T19:06:32;26.80;99.90
26583;DHT22;14230;45.382;10.998;2022-07-29T19:09:00;26.80;99.90
26583;DHT22;14230;45.382;10.998;2022-07-29T19:11:27;26.60;99.90
26583;DHT22;14230;45.382;10.998;2022-07-29T19:13:55;26.40;99.90
26583;DHT22;14230;45.382;10.998;2022-07-29T19:16:25;25.80;99.90
26583;DHT22;14230;45.382;10.998;2022-07-29T19:18:53;25.50;99.90
26583;DHT22;14230;45.382;10.998;2022-07-29T19:21:22;25.00;99.90
26583;DHT22;14230;45.382;10.998;2022-07-29T19:23:51;24.60;99.90
26583;DHT22;14230;45.382;10.998;2022-07-29T19:26:35;24.10;99.90
26583;DHT22;14230;45.382;10.998;2022-07-29T19:29:04;23.90;99.90
26583;DHT22;14230;45.382;10.998;2022-07-29T19:31:32;23.70;99.90
26583;DHT22;14230;45.382;10.998;2022-07-29T19:33:59;23.50;99.90
26583;DHT22;14230;45.382;10.998;2022-07-29T19:36:27;23.50;99.90
26583;DHT22;14230;45.382;10.998;2022-07-29T19:38:55;23.60;99.90
26583;DHT22;14230;45.382;10.998;2022-07-29T19:41:22;23.70;99.90
26583;DHT22;14230;45.382;10.998;2022-07-29T19:43:49;23.80;99.90
26583;DHT22;14230;45.382;10.998;2022-07-29T19:46:20;23.80;99.90
26583;DHT22;14230;45.382;10.998;2022-07-29T19:48:48;23.90;99.90
26583;DHT22;14230;45.382;10.998;2022-07-29T19:51:15;24.00;99.90
26583;DHT22;14230;45.382;10.998;2022-07-29T19:53:43;24.00;99.90
26583;DHT22;14230;45.382;10.998;2022-07-29T19:56:11;24.00;99.90
26583;DHT22;14230;45.382;10.998;2022-07-29T19:58:38;24.10;99.90
26583;DHT22;14230;45.382;10.998;2022-07-29T20:01:07;24.20;99.90
26583;DHT22;14230;45.382;10.998;2022-07-29T20:03:39;24.30;99.90
26583;DHT22;14230;45.382;10.998;2022-07-29T20:06:07;24.40;99.90
26583;DHT22;14230;45.382;10.998;2022-07-29T20:08:35;24.40;99.90
26583;DHT22;14230;45.382;10.998;2022-07-29T20:11:02;24.40;99.90
26583;DHT22;14230;45.382;10.998;2022-07-29T20:13:30;24.50;99.90
26583;DHT22;14230;45.382;10.998;2022-07-29T20:16:00;24.50;99.90
26583;DHT22;14230;45.382;10.998;2022-07-29T20:18:28;24.50;99.90
26583;DHT22;14230;45.382;10.998;2022-07-29T20:20:55;24.60;99.90
26583;DHT22;14230;45.382;10.998;2022-07-29T20:23:23;24.70;99.90
26583;DHT22;14230;45.382;10.998;2022-07-29T20:25:51;24.60;99.90